createdAt,value
2023-05-20T05:49:23.745Z,101034.31
2023-05-20T05:50:26.447Z,101033.31
2023-05-20T05:51:29.361Z,101035.88
2023-05-20T05:52:32.688Z,101036.59
2023-05-20T05:54:52.578Z,101030.75
2023-05-20T05:55:54.795Z,101034.53
2023-05-20T05:56:57.008Z,101034.28
2023-05-20T05:58:02.871Z,101036.72
2023-05-20T05:59:07.449Z,101039.50
2023-05-20T06:00:14.689Z,101035.09
2023-05-20T06:01:23.533Z,101037.81
2023-05-20T06:02:28.345Z,101037.13
2023-05-20T06:04:55.264Z,101033.09
2023-05-20T06:05:58.402Z,101040.47
2023-05-20T06:07:00.739Z,101037.59
2023-05-20T06:08:03.151Z,101044.84
2023-05-20T06:09:09.229Z,101045.94
2023-05-20T06:10:11.807Z,101035.50
2023-05-20T06:11:13.888Z,101042.81
2023-05-20T06:12:17.195Z,101039.00
2023-05-20T06:13:22.161Z,101037.88
2023-05-20T06:14:24.536Z,101037.78
2023-05-20T06:15:29.245Z,101040.03
2023-05-20T06:16:32.262Z,101046.28
2023-05-20T06:17:38.306Z,101048.38
2023-05-20T06:18:41.117Z,101049.94
2023-05-20T06:19:44.075Z,101048.81
2023-05-20T06:20:46.726Z,101047.47
2023-05-20T06:21:49.068Z,101042.72
2023-05-20T06:22:51.388Z,101053.66
2023-05-20T06:24:01.949Z,101042.59
2023-05-20T06:25:04.405Z,101040.72
2023-05-20T06:26:09.213Z,101044.53
2023-05-20T06:27:11.248Z,101039.84
2023-05-20T06:28:14.029Z,101043.09
2023-05-20T06:29:18.348Z,101040.16
2023-05-20T06:30:21.036Z,101038.78
2023-05-20T06:31:23.560Z,101043.78
2023-05-20T06:32:28.238Z,101039.66
2023-05-20T06:33:31.899Z,101036.81
2023-05-20T06:34:37.777Z,101036.16
2023-05-20T06:35:39.799Z,101036.47
2023-05-20T06:36:41.898Z,101038.13
2023-05-20T06:37:44.569Z,101036.78
2023-05-20T06:38:47.089Z,101036.22
2023-05-20T06:39:54.094Z,101040.81
2023-05-20T06:40:56.368Z,101043.28
2023-05-20T06:41:58.326Z,101040.25
2023-05-20T06:43:05.088Z,101042.34
2023-05-20T06:44:40.471Z,101035.69
2023-05-20T06:46:08.660Z,101027.41
2023-05-20T06:47:16.329Z,101039.06
2023-05-20T06:48:19.229Z,101033.53
2023-05-20T06:49:21.604Z,101041.78
2023-05-20T06:50:25.087Z,101035.34
2023-05-20T06:51:28.398Z,101037.84
2023-05-20T06:52:30.544Z,101034.72
2023-05-20T06:53:32.427Z,101042.28
2023-05-20T06:54:40.071Z,101034.75
2023-05-20T06:55:42.451Z,101034.16
2023-05-20T06:56:45.727Z,101034.00
2023-05-20T06:57:50.132Z,101029.81
2023-05-20T06:58:57.028Z,101040.41
2023-05-20T06:59:59.026Z,101043.16
2023-05-20T07:01:01.792Z,101049.53
2023-05-20T07:02:04.785Z,101034.47
2023-05-20T07:03:07.888Z,101039.09
2023-05-20T07:04:10.214Z,101035.94
2023-05-20T07:05:13.136Z,101037.56
2023-05-20T07:06:15.010Z,101034.72
2023-05-20T07:07:18.089Z,101034.91
2023-05-20T07:08:21.051Z,101034.59
2023-05-20T07:09:24.642Z,101033.34
2023-05-20T07:10:26.905Z,101041.13
2023-05-20T07:11:29.398Z,101036.72
2023-05-20T07:12:36.566Z,101042.44
2023-05-20T07:13:43.131Z,101042.72
2023-05-20T07:14:45.028Z,101049.72
2023-05-20T07:15:47.977Z,101035.84
2023-05-20T07:16:50.867Z,101034.44
2023-05-20T07:17:53.279Z,101036.00
2023-05-20T07:18:56.138Z,101029.91
2023-05-20T07:19:58.086Z,101033.63
2023-05-20T07:21:03.369Z,101021.88
2023-05-20T07:22:23.714Z,101035.28
2023-05-20T07:23:44.963Z,101027.56
2023-05-20T07:24:47.002Z,101034.91
2023-05-20T07:25:49.724Z,101034.31
2023-05-20T07:26:51.843Z,101029.19
2023-05-20T07:27:54.278Z,101034.53
2023-05-20T07:28:56.482Z,101027.09
2023-05-20T07:29:58.530Z,101035.81
2023-05-20T07:31:00.648Z,101039.03
2023-05-20T07:32:08.244Z,101032.66
2023-05-20T07:33:11.207Z,101032.34
2023-05-20T07:34:13.128Z,101031.44
2023-05-20T07:35:15.931Z,101036.09
2023-05-20T07:36:19.706Z,101030.81
2023-05-20T07:37:24.956Z,101038.44
2023-05-20T07:38:27.080Z,101028.19
2023-05-20T07:39:36.554Z,101039.16
2023-05-20T07:40:40.684Z,101042.22
2023-05-20T07:41:43.331Z,101033.69
2023-05-20T07:42:47.300Z,101044.25
2023-05-20T07:44:03.432Z,101030.28
2023-05-20T07:45:10.023Z,101031.88
2023-05-20T07:46:14.003Z,101035.34
2023-05-20T07:47:16.573Z,101032.94
2023-05-20T07:49:40.411Z,101029.09
2023-05-20T07:50:44.758Z,101020.41
2023-05-20T07:51:47.595Z,101016.06
2023-05-20T07:52:56.505Z,101022.09
2023-05-20T07:54:03.102Z,101022.34
2023-05-20T07:55:05.827Z,101016.03
2023-05-20T07:56:07.789Z,101016.81
2023-05-20T07:57:09.869Z,101022.19
2023-05-20T07:58:12.074Z,101020.97
2023-05-20T07:59:15.688Z,101026.72
2023-05-20T08:00:21.012Z,101018.38
2023-05-20T08:01:22.939Z,101015.16
2023-05-20T08:02:25.271Z,101015.91
2023-05-20T08:03:27.700Z,101017.56
2023-05-20T08:04:37.179Z,101034.84
2023-05-20T08:05:42.401Z,101011.06
2023-05-20T08:06:44.678Z,101011.75
2023-05-20T08:07:52.323Z,101017.88
2023-05-20T08:08:57.118Z,101002.09
2023-05-20T08:10:05.031Z,101015.63
2023-05-20T08:11:07.814Z,101009.38
2023-05-20T08:12:09.828Z,101011.72
2023-05-20T08:13:11.712Z,101009.91
2023-05-20T08:14:15.198Z,101006.97
2023-05-20T08:15:19.222Z,101009.78
2023-05-20T08:16:22.461Z,101012.06
2023-05-20T08:17:31.461Z,101020.75
2023-05-20T08:18:36.700Z,101009.47
2023-05-20T08:19:39.184Z,101015.41
2023-05-20T08:20:44.914Z,101015.19
2023-05-20T08:21:47.515Z,101013.84
2023-05-20T08:22:49.627Z,101020.00
2023-05-20T08:23:53.368Z,101005.19
2023-05-20T08:24:55.477Z,101014.72
2023-05-20T08:25:58.105Z,101010.16
2023-05-20T08:27:01.237Z,101008.69
2023-05-20T08:28:09.177Z,101009.13
2023-05-20T08:29:14.285Z,101000.94
2023-05-20T08:30:20.757Z,101002.69
2023-05-20T08:31:25.941Z,101005.59
2023-05-20T08:32:29.918Z,101003.44
2023-05-20T08:33:34.604Z,101000.31
2023-05-20T08:34:37.454Z,101007.81
2023-05-20T08:35:42.307Z,101012.97
2023-05-20T08:36:46.324Z,101005.38
2023-05-20T08:37:57.644Z,101006.38
2023-05-20T08:39:00.876Z,101005.78
2023-05-20T08:40:07.375Z,101007.53
2023-05-20T08:41:09.531Z,101012.81
2023-05-20T08:42:14.242Z,101001.47
2023-05-20T08:43:16.346Z,101001.66
2023-05-20T08:44:19.746Z,101012.13
2023-05-20T08:45:26.694Z,101010.06
2023-05-20T08:46:31.633Z,101009.22
2023-05-20T08:47:34.382Z,101016.19
2023-05-20T08:48:42.265Z,101008.69
2023-05-20T08:49:49.849Z,101010.50
2023-05-20T08:50:53.008Z,101016.88
2023-05-20T08:51:56.215Z,101014.25
2023-05-20T08:52:59.072Z,101008.53
2023-05-20T08:54:03.763Z,101003.16
2023-05-20T08:55:10.028Z,101011.09
2023-05-20T08:56:13.435Z,101001.63
2023-05-20T08:57:17.913Z,101006.72
2023-05-20T08:58:21.134Z,101024.78
2023-05-20T08:59:23.833Z,101015.13
2023-05-20T09:00:29.069Z,101015.44
2023-05-20T09:01:31.610Z,101007.59
2023-05-20T09:02:33.526Z,101010.25
2023-05-20T09:03:35.723Z,101018.75
2023-05-20T09:04:38.545Z,101023.31
2023-05-20T09:05:52.484Z,101015.47
2023-05-20T09:06:56.352Z,101011.47
2023-05-20T09:08:08.676Z,101009.81
2023-05-20T09:09:12.746Z,101004.72
2023-05-20T09:10:15.016Z,101007.84
2023-05-20T09:11:17.334Z,101014.19
2023-05-20T09:12:21.493Z,101016.88
2023-05-20T09:15:32.069Z,101024.16
2023-05-20T09:16:35.087Z,101022.69
2023-05-20T09:19:08.612Z,101029.81
2023-05-20T09:21:52.655Z,101014.78
2023-05-20T09:24:25.551Z,101020.88
2023-05-20T09:25:33.253Z,101025.69
2023-05-20T09:26:36.288Z,101028.88
2023-05-20T09:27:46.218Z,101012.78
2023-05-20T09:28:48.845Z,101012.88
2023-05-20T09:29:52.488Z,101019.59
2023-05-20T09:31:00.054Z,101026.03
2023-05-20T09:32:05.285Z,101025.66
2023-05-20T09:43:55.350Z,101030.50
2023-05-20T09:46:21.740Z,101025.03
2023-05-20T09:47:25.665Z,101024.59
2023-05-20T09:48:58.953Z,101024.59
2023-05-20T09:50:04.047Z,101026.50
2023-05-20T09:51:10.266Z,101026.44
2023-05-20T09:52:21.532Z,101026.66
2023-05-20T09:53:30.371Z,101036.09
2023-05-20T09:54:36.981Z,101032.81
2023-05-20T09:55:39.493Z,101037.06
2023-05-20T09:56:42.477Z,101032.66
2023-05-20T09:57:45.313Z,101040.44
2023-05-20T09:58:48.929Z,101026.72
2023-05-20T09:59:53.532Z,101034.19
2023-05-20T10:00:55.520Z,101040.00
2023-05-20T10:01:57.641Z,101036.94
2023-05-20T10:03:00.786Z,101034.44
2023-05-20T10:04:06.954Z,101042.69
2023-05-20T10:05:16.788Z,101030.50
2023-05-20T10:06:40.594Z,101028.63
2023-05-20T10:07:58.726Z,101033.66
2023-05-20T10:09:19.229Z,101030.91
2023-05-20T10:10:28.946Z,101041.22
2023-05-20T10:12:02.207Z,101037.31
2023-05-20T10:13:29.075Z,101046.84
2023-05-20T10:14:46.997Z,101042.16
2023-05-20T10:16:07.379Z,101044.09
2023-05-20T10:17:15.471Z,101052.19
2023-05-20T10:18:35.941Z,101050.25
2023-05-20T10:19:38.610Z,101058.25
2023-05-20T10:20:49.653Z,101049.84
2023-05-20T10:22:04.111Z,101049.06
2023-05-20T10:23:06.571Z,101042.31
2023-05-20T10:24:12.020Z,101055.03
2023-05-20T10:25:27.017Z,101043.06
2023-05-20T10:26:36.706Z,101057.06
2023-05-20T10:27:46.700Z,101057.47
2023-05-20T10:28:49.946Z,101055.91
2023-05-20T10:30:03.518Z,101047.09
2023-05-20T10:31:21.692Z,101046.28
2023-05-20T10:32:58.027Z,101049.88
2023-05-20T10:34:00.293Z,101053.44
2023-05-20T10:35:10.242Z,101042.97
2023-05-20T10:36:31.584Z,101053.38
2023-05-20T10:37:44.292Z,101046.81
2023-05-20T10:38:57.064Z,101045.44
2023-05-20T10:40:25.741Z,101049.28
2023-05-20T10:41:29.546Z,101043.97
2023-05-20T10:42:31.593Z,101042.44
2023-05-20T10:43:33.903Z,101044.34
2023-05-20T10:44:48.666Z,101044.44
2023-05-20T10:45:56.311Z,101046.75
2023-05-20T10:47:24.814Z,101040.38
2023-05-20T10:48:35.725Z,101037.13
2023-05-20T10:49:46.114Z,101035.22
2023-05-20T10:50:48.900Z,101048.72
2023-05-20T10:51:51.687Z,101038.28
2023-05-20T10:52:53.774Z,101040.41
2023-05-20T10:53:56.632Z,101035.59
2023-05-20T10:55:01.159Z,101039.69
2023-05-20T10:56:04.183Z,101041.22
2023-05-20T10:57:10.013Z,101044.50
2023-05-20T10:58:12.424Z,101038.03
2023-05-20T10:59:16.062Z,101034.03
2023-05-20T11:00:24.229Z,101035.66
2023-05-20T11:01:45.457Z,101045.19
2023-05-20T11:09:13.886Z,101036.31
2023-05-20T11:34:25.005Z,101045.44
2023-05-20T11:35:33.839Z,101039.09
2023-05-20T11:36:44.071Z,101052.66
2023-05-20T11:37:55.484Z,101052.25
2023-05-20T11:39:24.759Z,101051.84
2023-05-20T11:46:52.246Z,101051.84
2023-05-20T11:48:08.819Z,101055.03
2023-05-20T11:49:24.384Z,101050.28
2023-05-20T11:54:35.475Z,101056.63
2023-05-20T11:56:00.438Z,101048.66
2023-05-20T11:57:49.467Z,101045.88
2023-05-20T11:59:16.847Z,101041.44
2023-05-20T12:00:31.358Z,101040.25
2023-05-20T12:01:44.781Z,101045.41
2023-05-20T12:02:54.036Z,101043.81
2023-05-20T12:15:08.587Z,101041.78
2023-05-20T12:59:44.197Z,101028.13
2023-05-20T13:00:46.972Z,101029.13
2023-05-20T13:01:49.534Z,101022.28
2023-05-20T13:09:35.726Z,101020.94
2023-05-20T13:10:39.095Z,101025.75
2023-05-20T13:11:41.072Z,101026.88
2023-05-20T13:12:46.102Z,101029.63
2023-05-20T13:13:48.234Z,101039.50
2023-05-20T13:14:52.597Z,101027.19
2023-05-20T13:15:55.213Z,101031.38
2023-05-20T13:16:57.200Z,101039.44
2023-05-20T13:18:01.575Z,101037.59
2023-05-20T13:19:03.918Z,101027.91
2023-05-20T13:20:07.517Z,101038.69
2023-05-20T13:21:10.029Z,101035.63
2023-05-20T13:22:12.880Z,101039.28
2023-05-20T13:23:14.880Z,101033.56
2023-05-20T13:24:17.606Z,101039.19
2023-05-20T13:25:20.086Z,101031.09
2023-05-20T13:26:24.794Z,101042.78
2023-05-20T13:27:26.954Z,101048.81
2023-05-20T13:28:29.008Z,101036.38
2023-05-20T13:29:31.203Z,101045.19
2023-05-20T13:30:34.637Z,101047.63
2023-05-20T13:31:37.765Z,101038.44
2023-05-20T13:32:40.022Z,101035.66
2023-05-20T13:33:46.818Z,101044.44
2023-05-20T13:35:26.685Z,101046.75
2023-05-20T13:36:28.740Z,101040.56
2023-05-20T13:37:30.916Z,101050.19
2023-05-20T13:38:35.163Z,101046.22
2023-05-20T13:39:38.173Z,101035.88
2023-05-20T13:40:42.491Z,101050.66
2023-05-20T13:41:44.883Z,101045.44
2023-05-20T13:42:49.404Z,101051.88
2023-05-20T13:43:51.729Z,101040.22
2023-05-20T13:44:54.618Z,101044.59
2023-05-20T13:45:59.153Z,101040.56
2023-05-20T13:47:01.355Z,101050.13
2023-05-20T13:48:03.980Z,101033.38
2023-05-20T13:49:06.644Z,101046.91
2023-05-20T13:50:09.817Z,101045.38
2023-05-20T13:51:12.051Z,101035.81
2023-05-20T13:55:38.404Z,101047.88
2023-05-20T13:56:47.512Z,101054.25
2023-05-20T13:57:49.598Z,101050.28
2023-05-20T13:58:51.801Z,101056.66
2023-05-20T13:59:56.780Z,101051.88
2023-05-20T14:01:02.195Z,101058.25
2023-05-20T14:02:04.988Z,101045.03
2023-05-20T14:03:09.392Z,101059.06
2023-05-20T14:04:14.512Z,101043.53
2023-05-20T14:05:16.903Z,101053.47
2023-05-20T14:06:24.240Z,101050.31
2023-05-20T14:10:00.634Z,101043.91
2023-05-20T14:12:18.381Z,101046.69
2023-05-20T14:13:32.285Z,101045.09
2023-05-20T14:40:05.696Z,101027.50
2023-05-20T14:47:37.156Z,101026.28
2023-05-20T14:48:59.019Z,101020.69
2023-05-20T14:50:02.201Z,101015.91
2023-05-20T14:51:04.762Z,101017.88
2023-05-20T14:52:08.173Z,101018.28
2023-05-20T14:53:10.300Z,101023.91
2023-05-20T14:54:12.383Z,101019.47
2023-05-20T14:55:14.858Z,101019.09
2023-05-20T14:56:22.990Z,101025.47
2023-05-20T14:57:55.071Z,101019.09
2023-05-20T14:58:59.402Z,101021.94
2023-05-20T15:00:03.161Z,101021.88
2023-05-20T15:01:07.915Z,101021.09
2023-05-20T15:02:10.446Z,101019.06
2023-05-20T15:03:14.562Z,101013.47
2023-05-20T15:04:19.689Z,101018.66
2023-05-20T15:09:07.830Z,101024.69
2023-05-20T15:23:52.595Z,101003.13
2023-05-20T15:25:15.601Z,101005.88
2023-05-20T15:38:33.827Z,101002.34
2023-05-20T19:33:19.577Z,100951.78
2023-05-20T22:56:34.562Z,100795.69
